createdAt,value
2023-03-27T00:03:16.898Z,51.73
2023-03-27T00:08:25.724Z,52.75
2023-03-27T00:13:34.628Z,58.70
2023-03-27T00:18:42.955Z,56.47
2023-03-27T00:23:50.329Z,54.07
2023-03-27T00:28:58.669Z,50.20
2023-03-27T00:34:07.886Z,50.67
2023-03-27T00:39:15.288Z,51.27
2023-03-27T00:44:36.880Z,50.27
2023-03-27T00:49:45.503Z,49.93
2023-03-27T00:54:52.572Z,49.90
2023-03-27T01:00:01.618Z,51.13
2023-03-27T01:05:10.979Z,50.93
2023-03-27T01:10:19.524Z,51.00
2023-03-27T01:15:39.835Z,50.38
2023-03-27T01:21:20.694Z,50.73
2023-03-27T01:27:05.945Z,50.00
2023-03-27T01:32:37.307Z,51.03
2023-03-27T01:38:09.566Z,50.00
2023-03-27T01:43:23.050Z,51.03
2023-03-27T01:49:08.895Z,49.97
2023-03-27T01:54:30.164Z,49.48
2023-03-27T01:59:41.185Z,49.53
2023-03-27T02:04:55.349Z,49.20
2023-03-27T02:10:12.566Z,48.70
2023-03-27T02:15:25.358Z,48.63
2023-03-27T02:20:33.625Z,48.40
2023-03-27T02:25:47.412Z,48.77
2023-03-27T02:31:33.227Z,48.80
2023-03-27T02:37:05.951Z,48.80
2023-03-27T02:42:19.696Z,49.17
2023-03-27T02:47:53.126Z,48.68
2023-03-27T02:53:06.791Z,49.00
2023-03-27T02:58:18.266Z,48.93
2023-03-27T03:03:39.164Z,48.28
2023-03-27T03:08:47.033Z,48.77
2023-03-27T03:13:54.942Z,49.00
2023-03-27T03:19:02.089Z,48.57
2023-03-27T03:24:10.832Z,45.40
2023-03-27T03:29:22.297Z,45.17
2023-03-27T03:34:31.306Z,45.43
2023-03-27T03:39:39.072Z,45.40
2023-03-27T03:44:46.319Z,45.10
2023-03-27T03:49:54.348Z,45.20
2023-03-27T03:55:01.763Z,45.40
2023-03-27T04:00:12.953Z,45.00
2023-03-27T04:05:26.309Z,44.53
2023-03-27T04:10:33.712Z,44.50
2023-03-27T04:15:41.305Z,43.93
2023-03-27T04:20:53.654Z,43.50
2023-03-27T04:26:03.617Z,43.50
2023-03-27T04:31:12.671Z,43.87
2023-03-27T04:36:19.985Z,43.60
2023-03-27T04:41:29.155Z,43.42
2023-03-27T04:46:36.214Z,42.60
2023-03-27T04:51:44.370Z,43.15
2023-03-27T04:56:53.959Z,43.07
2023-03-27T05:02:05.429Z,44.13
2023-03-27T05:07:13.225Z,42.87
2023-03-27T05:12:23.157Z,42.83
2023-03-27T05:17:30.572Z,43.07
2023-03-27T05:22:38.089Z,42.87
2023-03-27T05:27:50.662Z,43.10
2023-03-27T05:33:00.179Z,42.93
2023-03-27T05:38:08.536Z,41.87
2023-03-27T05:43:15.976Z,42.62
2023-03-27T05:48:23.504Z,41.93
2023-03-27T05:53:31.875Z,42.00
2023-03-27T05:58:39.505Z,42.43
2023-03-27T06:03:48.194Z,42.40
2023-03-27T06:08:56.527Z,42.17
2023-03-27T06:14:04.359Z,42.50
2023-03-27T06:19:11.867Z,42.40
2023-03-27T06:24:20.211Z,42.17
2023-03-27T06:29:28.870Z,42.10
2023-03-27T06:34:36.415Z,41.83
2023-03-27T06:39:44.716Z,41.33
2023-03-27T06:44:52.069Z,41.13
2023-03-27T06:49:59.344Z,41.77
2023-03-27T06:55:07.921Z,41.63
2023-03-27T07:00:22.869Z,41.53
2023-03-27T07:05:35.583Z,41.50
2023-03-27T07:10:44.610Z,41.73
2023-03-27T07:15:52.506Z,41.70
2023-03-27T07:21:01.402Z,41.27
2023-03-27T07:26:09.230Z,41.87
2023-03-27T07:31:31.560Z,42.03
2023-03-27T07:36:26.987Z,42.10
2023-03-27T07:41:35.134Z,41.90
2023-03-27T07:46:43.086Z,42.27
2023-03-27T07:51:52.373Z,42.10
2023-03-27T07:56:59.685Z,41.70
2023-03-27T08:02:06.692Z,42.13
2023-03-27T08:07:13.756Z,41.83
2023-03-27T08:12:22.456Z,42.53
2023-03-27T08:17:32.008Z,42.25
2023-03-27T08:22:41.215Z,42.40
2023-03-27T08:27:48.574Z,41.93
2023-03-27T08:32:56.221Z,42.13
2023-03-27T08:38:07.389Z,42.40
2023-03-27T08:43:17.737Z,43.23
2023-03-27T08:48:47.304Z,42.50
2023-03-27T08:54:21.652Z,42.50
2023-03-27T08:59:31.935Z,42.83
2023-03-27T09:05:02.347Z,42.93
2023-03-27T09:10:49.655Z,43.13
2023-03-27T09:16:05.988Z,42.60
2023-03-27T09:21:20.118Z,43.93
2023-03-27T09:26:37.320Z,43.05
2023-03-27T09:31:53.775Z,42.67
2023-03-27T09:37:02.827Z,43.23
2023-03-27T09:42:20.043Z,42.37
2023-03-27T09:47:39.388Z,43.13
2023-03-27T09:52:46.356Z,43.00
2023-03-27T09:57:58.478Z,43.23
2023-03-27T10:03:09.425Z,43.07
2023-03-27T10:08:43.466Z,43.67
2023-03-27T10:13:52.089Z,43.10
2023-03-27T10:19:01.394Z,42.93
2023-03-27T10:24:24.689Z,42.43
2023-03-27T10:29:41.085Z,43.23
2023-03-27T10:34:58.705Z,43.10
2023-03-27T10:40:08.570Z,43.30
2023-03-27T10:45:22.436Z,43.43
2023-03-27T10:50:46.807Z,42.35
2023-03-27T10:56:11.152Z,42.90
2023-03-27T11:01:33.209Z,42.53
2023-03-27T11:06:45.316Z,42.80
2023-03-27T11:12:15.738Z,43.43
2023-03-27T11:17:28.922Z,43.80
2023-03-27T11:22:44.305Z,43.80
2023-03-27T11:28:13.867Z,43.68
2023-03-27T11:33:32.851Z,44.00
2023-03-27T11:38:45.853Z,44.10
2023-03-27T11:43:52.633Z,43.73
2023-03-27T11:49:18.067Z,44.23
2023-03-27T11:54:33.011Z,43.73
2023-03-27T12:00:00.713Z,44.37
2023-03-27T12:05:45.458Z,44.13
2023-03-27T12:10:56.308Z,44.47
2023-03-27T12:16:35.393Z,44.87
2023-03-27T12:22:09.326Z,44.80
2023-03-27T12:27:32.288Z,44.57
2023-03-27T12:33:00.512Z,45.80
2023-03-27T12:38:29.090Z,45.23
2023-03-27T12:43:44.584Z,44.70
2023-03-27T12:48:58.945Z,46.17
2023-03-27T12:54:28.254Z,45.40
2023-03-27T12:59:52.682Z,44.95
2023-03-27T13:05:43.294Z,44.10
2023-03-27T13:11:21.572Z,44.53
2023-03-27T13:16:37.140Z,44.60
2023-03-27T13:22:12.318Z,44.37
2023-03-27T13:27:50.632Z,43.77
2023-03-27T13:33:18.342Z,44.27
2023-03-27T13:39:00.293Z,44.47
2023-03-27T13:44:27.339Z,44.43
2023-03-27T13:50:08.522Z,44.50
2023-03-27T13:55:29.143Z,44.00
2023-03-27T14:01:23.045Z,44.42
2023-03-27T14:07:22.725Z,44.50
2023-03-27T14:12:57.055Z,44.10
2023-03-27T14:18:36.587Z,43.83
2023-03-27T14:23:51.447Z,44.97
2023-03-27T14:29:02.012Z,43.80
2023-03-27T14:34:16.402Z,43.95
2023-03-27T14:39:29.228Z,43.80
2023-03-27T14:44:36.911Z,43.58
2023-03-27T14:49:50.102Z,43.30
2023-03-27T14:54:59.410Z,43.70
2023-03-27T15:00:08.279Z,43.90
2023-03-27T15:05:18.850Z,44.20
2023-03-27T15:10:30.706Z,43.70
2023-03-27T15:15:43.447Z,43.30
2023-03-27T15:20:52.655Z,44.33
2023-03-27T15:26:09.645Z,43.57
2023-03-27T15:31:18.916Z,43.77
2023-03-27T15:36:28.534Z,44.93
2023-03-27T15:41:39.008Z,43.57
2023-03-27T15:46:52.433Z,45.87
2023-03-27T15:52:02.653Z,43.63
2023-03-27T15:57:13.450Z,45.77
2023-03-27T16:02:21.820Z,44.23
2023-03-27T16:07:47.709Z,45.20
2023-03-27T16:13:03.097Z,45.67
2023-03-27T16:18:27.502Z,45.30
2023-03-27T16:23:34.387Z,44.57
2023-03-27T16:28:42.960Z,44.73
2023-03-27T16:33:50.172Z,44.13
2023-03-27T16:38:59.030Z,43.37
2023-03-27T16:44:06.503Z,42.87
2023-03-27T16:49:15.039Z,43.73
2023-03-27T16:54:22.930Z,43.20
2023-03-27T16:59:31.259Z,43.20
2023-03-27T17:04:39.032Z,42.85
2023-03-27T17:09:46.029Z,45.63
2023-03-27T17:14:54.417Z,44.20
2023-03-27T17:20:01.771Z,44.10
2023-03-27T17:25:10.961Z,44.20
2023-03-27T17:30:30.483Z,44.00
2023-03-27T17:35:29.316Z,43.90
2023-03-27T17:40:41.580Z,43.75
2023-03-27T17:45:49.930Z,43.83
2023-03-27T17:51:08.208Z,43.77
2023-03-27T17:56:07.622Z,43.80
2023-03-27T18:01:18.567Z,43.33
2023-03-27T18:06:30.843Z,43.50
2023-03-27T18:11:38.330Z,43.47
2023-03-27T18:16:45.888Z,46.13
2023-03-27T18:21:53.259Z,43.83
2023-03-27T18:27:04.244Z,45.10
2023-03-27T18:32:11.593Z,43.30
2023-03-27T18:37:19.234Z,42.87
2023-03-27T18:42:27.653Z,42.30
2023-03-27T18:47:36.789Z,43.07
2023-03-27T18:52:44.054Z,44.37
2023-03-27T18:57:52.316Z,46.67
2023-03-27T19:02:59.584Z,43.70
2023-03-27T19:08:07.145Z,44.23
2023-03-27T19:13:15.200Z,43.43
2023-03-27T19:18:22.897Z,43.33
2023-03-27T19:23:30.960Z,43.70
2023-03-27T19:28:38.774Z,43.63
2023-03-27T19:33:46.248Z,43.37
2023-03-27T19:38:54.860Z,43.13
2023-03-27T19:44:02.032Z,43.93
2023-03-27T19:49:09.468Z,43.50
2023-03-27T19:54:18.250Z,43.20
2023-03-27T19:59:30.731Z,43.17
2023-03-27T20:04:51.309Z,47.23
2023-03-27T20:09:58.551Z,43.00
2023-03-27T20:15:11.500Z,43.30
2023-03-27T20:20:16.957Z,43.10
2023-03-27T20:25:24.842Z,42.53
2023-03-27T20:30:35.578Z,42.78
2023-03-27T20:35:44.348Z,42.60
2023-03-27T20:40:54.027Z,43.10
2023-03-27T20:46:01.850Z,42.33
2023-03-27T20:51:18.053Z,42.80
2023-03-27T20:56:27.568Z,42.53
2023-03-27T21:01:38.685Z,42.73
2023-03-27T21:06:47.589Z,42.60
2023-03-27T21:11:55.442Z,42.33
2023-03-27T21:17:05.293Z,41.93
2023-03-27T21:22:13.154Z,42.33
2023-03-27T21:27:21.473Z,41.83
2023-03-27T21:32:31.163Z,41.88
2023-03-27T21:37:39.061Z,41.70
2023-03-27T21:42:45.809Z,41.90
2023-03-27T21:47:53.577Z,41.47
2023-03-27T21:53:01.304Z,41.43
2023-03-27T21:58:08.146Z,41.53
2023-03-27T22:03:15.076Z,41.27
2023-03-27T22:08:25.237Z,41.07
2023-03-27T22:13:32.928Z,41.70
2023-03-27T22:18:42.863Z,41.87
2023-03-27T22:23:51.161Z,42.87
2023-03-27T22:28:58.281Z,42.20
2023-03-27T22:34:06.929Z,41.17
2023-03-27T22:39:13.937Z,41.43
2023-03-27T22:44:23.428Z,41.48
2023-03-27T22:49:30.744Z,40.75
2023-03-27T22:54:37.878Z,41.27
2023-03-27T22:59:45.140Z,41.77
2023-03-27T23:09:58.390Z,41.20
2023-03-27T23:15:09.331Z,41.50
2023-03-27T23:20:16.654Z,41.40
2023-03-27T23:25:25.582Z,41.63
2023-03-27T23:30:33.882Z,41.87
2023-03-27T23:35:41.710Z,41.83
2023-03-27T23:40:53.470Z,41.77
2023-03-27T23:46:03.192Z,41.60
2023-03-27T23:51:11.967Z,41.63
2023-03-27T23:56:19.383Z,41.83
